createdAt,value
2022-10-19T00:00:49.360Z,97372.75
2022-10-19T00:03:18.283Z,97371.28
2022-10-19T00:05:47.220Z,97375.50
2022-10-19T00:08:13.593Z,97378.19
2022-10-19T00:10:40.069Z,97376.22
2022-10-19T00:13:06.441Z,97369.38
2022-10-19T00:15:32.804Z,97364.63
2022-10-19T00:17:59.187Z,97362.66
2022-10-19T00:20:25.552Z,97363.97
2022-10-19T00:22:51.932Z,97359.41
2022-10-19T00:25:18.296Z,97354.81
2022-10-19T00:27:44.670Z,97350.16
2022-10-19T00:30:11.032Z,97349.03
2022-10-19T00:32:37.405Z,97343.25
2022-10-19T00:35:03.780Z,97347.94
2022-10-19T00:37:30.169Z,97351.03
2022-10-19T00:39:56.552Z,97351.78
2022-10-19T00:42:22.937Z,97352.28
2022-10-19T00:44:49.325Z,97347.94
2022-10-19T00:47:15.712Z,97352.41
2022-10-19T00:49:42.080Z,97354.38
2022-10-19T00:52:08.459Z,97356.72
2022-10-19T00:54:34.827Z,97357.84
2022-10-19T00:57:01.187Z,97356.59
2022-10-19T00:59:27.556Z,97360.41
2022-10-19T01:01:53.943Z,97358.94
2022-10-19T01:04:20.333Z,97357.31
2022-10-19T01:06:46.757Z,97357.38
2022-10-19T01:09:13.249Z,97360.41
2022-10-19T01:11:39.655Z,97358.63
2022-10-19T01:14:06.029Z,97348.25
2022-10-19T01:16:32.402Z,97350.31
2022-10-19T01:18:58.796Z,97352.56
2022-10-19T01:21:25.183Z,97336.72
2022-10-19T01:23:51.542Z,97338.69
2022-10-19T01:26:17.932Z,97332.72
2022-10-19T01:28:44.344Z,97343.94
2022-10-19T01:31:10.758Z,97336.94
2022-10-19T01:33:37.125Z,97334.13
2022-10-19T01:36:03.499Z,97334.91
2022-10-19T01:38:29.860Z,97329.81
2022-10-19T01:40:56.233Z,97325.16
2022-10-19T01:43:22.617Z,97327.81
2022-10-19T01:45:49.009Z,97323.03
2022-10-19T01:48:15.389Z,97336.94
2022-10-19T01:50:41.775Z,97328.78
2022-10-19T01:53:08.164Z,97324.22
2022-10-19T01:55:34.535Z,97324.91
2022-10-19T01:58:00.901Z,97326.81
2022-10-19T02:00:27.268Z,97318.88
2022-10-19T02:02:53.652Z,97318.81
2022-10-19T02:05:20.044Z,97326.38
2022-10-19T02:07:46.408Z,97319.81
2022-10-19T02:12:59.085Z,97322.84
2022-10-19T02:15:25.585Z,97313.59
2022-10-19T02:17:51.969Z,97312.34
2022-10-19T02:20:18.342Z,97314.66
2022-10-19T02:22:44.721Z,97311.03
2022-10-19T02:25:11.090Z,97306.72
2022-10-19T02:27:37.451Z,97299.63
2022-10-19T02:30:03.825Z,97305.66
2022-10-19T02:32:30.340Z,97305.31
2022-10-19T02:34:56.860Z,97301.28
2022-10-19T02:37:25.420Z,97299.09
2022-10-19T02:39:52.169Z,97296.97
2022-10-19T02:42:18.545Z,97289.28
2022-10-19T02:44:44.908Z,97291.31
2022-10-19T02:47:11.276Z,97290.19
2022-10-19T02:49:37.648Z,97287.75
2022-10-19T02:52:04.011Z,97287.41
2022-10-19T02:54:30.486Z,97282.25
2022-10-19T02:56:56.852Z,97278.53
2022-10-19T02:59:23.222Z,97281.19
2022-10-19T03:01:49.609Z,97285.09
2022-10-19T03:04:15.974Z,97280.63
2022-10-19T03:06:42.340Z,97287.53
2022-10-19T03:09:08.710Z,97286.66
2022-10-19T03:11:35.094Z,97286.66
2022-10-19T03:14:01.459Z,97282.84
2022-10-19T03:16:27.833Z,97280.41
2022-10-19T03:18:54.209Z,97276.84
2022-10-19T03:21:20.575Z,97285.44
2022-10-19T03:23:46.955Z,97275.50
2022-10-19T03:26:13.348Z,97276.63
2022-10-19T03:28:39.767Z,97274.81
2022-10-19T03:31:06.151Z,97276.97
2022-10-19T03:33:32.531Z,97276.44
2022-10-19T03:35:58.906Z,97276.72
2022-10-19T03:38:25.297Z,97282.56
2022-10-19T03:40:51.682Z,97278.44
2022-10-19T03:43:18.051Z,97274.94
2022-10-19T03:45:44.423Z,97273.88
2022-10-19T03:48:10.793Z,97270.31
2022-10-19T03:50:37.178Z,97266.72
2022-10-19T03:55:49.837Z,97265.19
2022-10-19T03:58:16.201Z,97278.03
2022-10-19T04:00:42.607Z,97280.69
2022-10-19T04:03:08.994Z,97276.72
2022-10-19T04:05:35.360Z,97277.25
2022-10-19T04:08:01.733Z,97280.16
2022-10-19T04:10:28.099Z,97281.31
2022-10-19T04:12:54.459Z,97274.56
2022-10-19T04:15:20.830Z,97276.88
2022-10-19T04:17:48.697Z,97267.84
2022-10-19T04:20:15.135Z,97271.75
2022-10-19T04:22:41.524Z,97271.53
2022-10-19T04:25:07.898Z,97273.38
2022-10-19T04:27:34.409Z,97276.19
2022-10-19T04:30:01.000Z,97276.13
2022-10-19T04:32:27.369Z,97272.06
2022-10-19T04:34:53.754Z,97274.06
2022-10-19T04:37:20.122Z,97273.47
2022-10-19T04:39:46.494Z,97270.84
2022-10-19T04:42:12.876Z,97272.16
2022-10-19T04:44:39.239Z,97259.06
2022-10-19T04:47:05.626Z,97260.09
2022-10-19T04:49:31.992Z,97264.50
2022-10-19T04:51:58.368Z,97255.47
2022-10-19T04:54:24.754Z,97261.44
2022-10-19T04:56:51.144Z,97252.69
2022-10-19T04:59:17.523Z,97260.03
2022-10-19T05:01:46.506Z,97255.34
2022-10-19T05:04:13.739Z,97252.94
2022-10-19T05:06:40.109Z,97254.41
2022-10-19T05:09:06.493Z,97254.91
2022-10-19T05:11:32.878Z,97253.28
2022-10-19T05:13:59.250Z,97257.06
2022-10-19T05:16:25.620Z,97249.91
2022-10-19T05:18:51.982Z,97255.31
2022-10-19T05:21:18.349Z,97255.47
2022-10-19T05:23:44.721Z,97257.78
2022-10-19T05:26:11.113Z,97248.41
2022-10-19T05:28:37.521Z,97256.78
2022-10-19T05:31:03.923Z,97252.97
2022-10-19T05:33:30.295Z,97255.31
2022-10-19T05:35:56.666Z,97250.25
2022-10-19T05:38:23.029Z,97249.25
2022-10-19T05:40:52.938Z,97260.84
2022-10-19T05:43:20.124Z,97256.50
2022-10-19T05:45:46.476Z,97255.13
2022-10-19T05:48:12.841Z,97257.28
2022-10-19T05:50:39.244Z,97255.72
2022-10-19T05:53:05.611Z,97243.22
2022-10-19T05:55:31.977Z,97244.66
2022-10-19T05:57:58.354Z,97250.19
2022-10-19T06:00:24.716Z,97245.81
2022-10-19T06:02:52.929Z,97242.66
2022-10-19T06:05:22.079Z,97245.66
2022-10-19T06:07:48.448Z,97248.88
2022-10-19T06:10:14.825Z,97242.59
2022-10-19T06:12:41.185Z,97242.69
2022-10-19T06:15:07.569Z,97242.50
2022-10-19T06:17:34.300Z,97244.25
2022-10-19T06:20:00.867Z,97246.66
2022-10-19T06:22:27.224Z,97245.88
2022-10-19T06:24:53.602Z,97242.78
2022-10-19T06:27:20.018Z,97248.03
2022-10-19T06:29:46.434Z,97249.25
2022-10-19T06:32:12.800Z,97250.53
2022-10-19T06:34:39.194Z,97251.53
2022-10-19T06:37:05.559Z,97244.97
2022-10-19T06:39:31.931Z,97251.63
2022-10-19T06:41:58.295Z,97249.66
2022-10-19T06:44:24.663Z,97251.53
2022-10-19T06:46:51.028Z,97254.06
2022-10-19T06:49:17.397Z,97256.53
2022-10-19T06:51:43.760Z,97259.63
2022-10-19T06:54:10.130Z,97260.25
2022-10-19T06:56:36.554Z,97262.41
2022-10-19T06:59:02.937Z,97259.75
2022-10-19T07:01:29.381Z,97259.16
2022-10-19T07:03:55.830Z,97262.16
2022-10-19T07:06:22.472Z,97260.84
2022-10-19T07:08:48.849Z,97270.50
2022-10-19T07:11:15.222Z,97265.94
2022-10-19T07:13:41.587Z,97262.94
2022-10-19T07:16:07.951Z,97271.88
2022-10-19T07:18:34.316Z,97271.63
2022-10-19T07:21:00.683Z,97267.97
2022-10-19T07:23:27.056Z,97266.28
2022-10-19T07:25:53.418Z,97261.47
2022-10-19T07:28:19.780Z,97253.38
2022-10-19T07:30:46.154Z,97264.41
2022-10-19T07:33:12.542Z,97267.75
2022-10-19T07:35:38.921Z,97264.50
2022-10-19T07:38:05.299Z,97268.72
2022-10-19T07:40:31.672Z,97269.31
2022-10-19T07:42:58.031Z,97262.41
2022-10-19T07:45:24.403Z,97271.28
2022-10-19T07:47:50.761Z,97273.53
2022-10-19T07:50:17.121Z,97274.31
2022-10-19T07:52:43.740Z,97280.66
2022-10-19T07:55:10.274Z,97279.28
2022-10-19T07:57:36.644Z,97275.16
2022-10-19T08:00:03.077Z,97272.94
2022-10-19T08:02:39.420Z,97275.16
2022-10-19T08:05:16.235Z,97265.81
2022-10-19T08:07:42.829Z,97270.16
2022-10-19T08:10:09.198Z,97264.03
2022-10-19T08:12:35.935Z,97267.81
2022-10-19T08:15:02.589Z,97266.59
2022-10-19T08:17:28.957Z,97263.81
2022-10-19T08:19:55.343Z,97255.78
2022-10-19T08:22:21.718Z,97271.25
2022-10-19T08:24:48.095Z,97259.25
2022-10-19T08:27:14.474Z,97259.63
2022-10-19T08:29:40.862Z,97258.69
2022-10-19T08:32:07.219Z,97247.47
2022-10-19T08:34:33.575Z,97253.59
2022-10-19T08:36:59.958Z,97244.34
2022-10-19T08:39:26.329Z,97255.13
2022-10-19T08:41:52.711Z,97244.44
2022-10-19T08:44:19.314Z,97238.22
2022-10-19T08:46:45.746Z,97237.03
2022-10-19T08:49:12.160Z,97233.97
2022-10-19T08:51:38.536Z,97230.50
2022-10-19T08:54:04.917Z,97237.91
2022-10-19T08:56:50.903Z,97232.66
2022-10-19T08:59:17.647Z,97236.63
2022-10-19T09:01:44.029Z,97233.38
2022-10-19T09:04:10.405Z,97234.66
2022-10-19T09:06:36.769Z,97234.28
2022-10-19T09:09:03.204Z,97236.69
2022-10-19T09:11:29.637Z,97239.00
2022-10-19T09:14:04.858Z,97232.91
2022-10-19T09:16:31.953Z,97225.41
2022-10-19T09:18:58.337Z,97230.94
2022-10-19T09:21:31.012Z,97232.31
2022-10-19T09:24:04.313Z,97234.94
2022-10-19T09:26:30.685Z,97231.63
2022-10-19T09:28:57.070Z,97241.19
2022-10-19T09:31:23.444Z,97228.72
2022-10-19T09:33:49.820Z,97231.03
2022-10-19T09:36:22.800Z,97234.47
2022-10-19T09:38:54.202Z,97225.88
2022-10-19T09:41:20.575Z,97235.47
2022-10-19T09:43:46.945Z,97225.09
2022-10-19T09:46:19.843Z,97218.41
2022-10-19T09:48:46.611Z,97216.44
2022-10-19T09:51:12.974Z,97205.63
2022-10-19T09:53:39.351Z,97201.34
2022-10-19T09:56:06.108Z,97200.47
2022-10-19T09:58:33.323Z,97207.53
2022-10-19T10:00:59.869Z,97212.09
2022-10-19T10:03:26.257Z,97215.19
2022-10-19T10:05:52.626Z,97216.69
2022-10-19T10:08:18.999Z,97221.72
2022-10-19T10:10:45.369Z,97219.69
2022-10-19T10:13:11.743Z,97212.78
2022-10-19T10:15:38.129Z,97207.06
2022-10-19T10:18:04.497Z,97204.75
2022-10-19T10:20:30.880Z,97203.81
2022-10-19T10:22:57.253Z,97198.81
2022-10-19T10:25:23.621Z,97194.41
2022-10-19T10:27:50.007Z,97185.22
2022-10-19T10:30:16.425Z,97183.47
2022-10-19T10:32:44.523Z,97187.97
2022-10-19T10:35:14.307Z,97191.41
2022-10-19T10:37:40.677Z,97180.72
2022-10-19T10:40:07.070Z,97184.16
2022-10-19T10:42:33.683Z,97187.78
2022-10-19T10:45:00.307Z,97180.81
2022-10-19T10:47:26.690Z,97175.53
2022-10-19T10:49:53.077Z,97182.06
2022-10-19T10:52:19.476Z,97176.81
2022-10-19T10:54:45.870Z,97173.00
2022-10-19T10:57:12.369Z,97169.16
2022-10-19T10:59:41.737Z,97160.44
2022-10-19T11:02:11.883Z,97162.00
2022-10-19T11:04:38.531Z,97156.56
2022-10-19T11:07:04.915Z,97152.25
2022-10-19T11:09:31.336Z,97153.50
2022-10-19T11:11:57.735Z,97142.94
2022-10-19T11:14:24.107Z,97144.03
2022-10-19T11:16:50.494Z,97139.88
2022-10-19T11:19:16.942Z,97131.72
2022-10-19T11:21:43.325Z,97133.94
2022-10-19T11:24:09.705Z,97137.28
2022-10-19T11:26:36.090Z,97141.13
2022-10-19T11:29:02.472Z,97129.28
2022-10-19T11:31:29.782Z,97126.97
2022-10-19T11:33:56.244Z,97122.81
2022-10-19T11:36:22.622Z,97125.16
2022-10-19T11:38:49.006Z,97120.59
2022-10-19T11:41:19.111Z,97110.69
2022-10-19T11:43:45.805Z,97106.28
2022-10-19T11:46:12.173Z,97097.94
2022-10-19T11:48:40.384Z,97098.28
2022-10-19T11:51:20.855Z,97098.28
2022-10-19T11:53:48.338Z,97094.41
2022-10-19T11:56:14.700Z,97102.06
2022-10-19T11:58:41.067Z,97106.28
2022-10-19T12:01:07.432Z,97081.72
2022-10-19T12:03:33.804Z,97074.84
2022-10-19T12:06:00.194Z,97068.81
2022-10-19T12:08:26.623Z,97071.34
2022-10-19T12:10:53.075Z,97075.69
2022-10-19T12:13:19.442Z,97071.41
2022-10-19T12:15:45.826Z,97059.44
2022-10-19T12:18:12.209Z,97056.94
2022-10-19T12:20:38.580Z,97054.34
2022-10-19T12:23:04.949Z,97053.66
2022-10-19T12:25:31.328Z,97047.97
2022-10-19T12:27:57.693Z,97050.19
2022-10-19T12:30:24.059Z,97050.19
2022-10-19T12:32:53.538Z,97042.53
2022-10-19T12:38:07.086Z,97023.50
2022-10-19T12:40:33.464Z,97036.44
2022-10-19T12:42:59.836Z,97031.84
2022-10-19T12:45:26.213Z,97023.22
2022-10-19T12:47:52.588Z,97015.47
2022-10-19T12:53:05.287Z,97008.69
2022-10-19T12:55:31.667Z,97000.66
2022-10-19T12:57:58.045Z,96999.69
2022-10-19T13:00:24.493Z,97003.22
2022-10-19T13:02:50.902Z,97009.53
2022-10-19T13:05:17.280Z,97003.84
2022-10-19T13:07:43.681Z,97002.94
2022-10-19T13:10:10.076Z,97002.09
2022-10-19T13:12:36.676Z,96996.47
2022-10-19T13:15:03.261Z,96995.09
2022-10-19T13:17:33.287Z,96998.88
2022-10-19T13:20:00.590Z,97004.56
2022-10-19T13:22:26.967Z,97007.31
2022-10-19T13:24:53.359Z,96995.69
2022-10-19T13:27:19.735Z,96990.63
2022-10-19T13:29:46.105Z,96991.31
2022-10-19T13:32:12.497Z,96982.41
2022-10-19T13:34:38.880Z,96978.47
2022-10-19T13:37:05.250Z,96985.06
2022-10-19T13:39:31.626Z,96985.28
2022-10-19T13:41:58.018Z,96982.00
2022-10-19T13:44:24.410Z,96986.06
2022-10-19T13:46:50.779Z,96983.31
2022-10-19T13:49:17.141Z,96979.00
2022-10-19T13:51:43.529Z,96977.19
2022-10-19T13:54:09.898Z,96981.50
2022-10-19T13:59:22.624Z,96984.31
2022-10-19T14:01:49.055Z,96972.88
2022-10-19T14:04:15.476Z,96977.13
2022-10-19T14:06:41.955Z,96983.03
2022-10-19T14:09:08.412Z,96977.34
2022-10-19T14:11:34.833Z,96983.13
2022-10-19T14:14:01.212Z,96970.19
2022-10-19T14:16:27.576Z,96971.72
2022-10-19T14:18:53.960Z,96969.47
2022-10-19T14:21:20.335Z,96969.41
2022-10-19T14:26:33.000Z,96965.34
2022-10-19T14:28:59.443Z,96954.16
2022-10-19T14:31:25.828Z,96960.00
2022-10-19T14:33:52.188Z,96955.34
2022-10-19T14:36:18.558Z,96952.94
2022-10-19T14:38:44.946Z,96938.19
2022-10-19T14:41:11.313Z,96937.84
2022-10-19T14:43:37.675Z,96948.09
2022-10-19T14:46:04.059Z,96945.75
2022-10-19T14:48:30.437Z,96939.72
2022-10-19T14:50:56.816Z,96941.69
2022-10-19T14:53:23.183Z,96947.75
2022-10-19T14:55:49.559Z,96943.09
2022-10-19T14:58:15.937Z,96951.13
2022-10-19T15:00:42.318Z,96950.91
2022-10-19T15:03:08.699Z,96950.84
2022-10-19T15:05:35.162Z,96951.53
2022-10-19T15:08:01.528Z,96954.28
2022-10-19T15:10:29.439Z,96943.53
2022-10-19T15:12:58.780Z,96932.41
2022-10-19T15:15:25.153Z,96930.50
2022-10-19T15:17:51.541Z,96925.66
2022-10-19T15:20:17.918Z,96929.56
2022-10-19T15:22:44.301Z,96924.28
2022-10-19T15:25:10.664Z,96929.47
2022-10-19T15:27:37.040Z,96932.00
2022-10-19T15:30:03.425Z,96926.78
2022-10-19T15:32:29.797Z,96927.44
2022-10-19T15:34:56.182Z,96926.66
2022-10-19T15:37:22.618Z,96931.56
2022-10-19T15:39:49.011Z,96926.72
2022-10-19T15:42:15.393Z,96912.56
2022-10-19T15:44:41.781Z,96910.19
2022-10-19T15:47:08.187Z,96908.72
2022-10-19T15:49:34.576Z,96905.31
2022-10-19T15:52:00.958Z,96905.03
2022-10-19T15:54:27.338Z,96903.56
2022-10-19T15:56:53.707Z,96915.59
2022-10-19T15:59:20.074Z,96911.94
2022-10-19T16:01:46.482Z,96912.38
2022-10-19T16:04:12.881Z,96907.03
2022-10-19T16:06:39.257Z,96911.44
2022-10-19T16:09:05.708Z,96913.56
2022-10-19T16:11:32.147Z,96908.34
2022-10-19T16:13:58.519Z,96907.56
2022-10-19T16:16:24.902Z,96914.56
2022-10-19T16:18:51.278Z,96910.75
2022-10-19T16:21:17.662Z,96913.06
2022-10-19T16:23:44.047Z,96913.16
2022-10-19T16:26:10.433Z,96913.91
2022-10-19T16:28:36.815Z,96910.47
2022-10-19T16:31:03.180Z,96905.81
2022-10-19T16:33:29.543Z,96902.38
2022-10-19T16:35:55.920Z,96899.38
2022-10-19T16:38:22.288Z,96908.56
2022-10-19T16:40:48.680Z,96907.81
2022-10-19T16:43:15.062Z,96900.91
2022-10-19T16:45:41.442Z,96898.59
2022-10-19T16:48:07.816Z,96899.78
2022-10-19T16:50:34.234Z,96901.59
2022-10-19T16:53:00.661Z,96911.59
2022-10-19T16:55:27.043Z,96908.50
2022-10-19T16:57:53.417Z,96913.00
2022-10-19T17:00:19.835Z,96929.09
2022-10-19T17:02:46.625Z,96926.59
2022-10-19T17:05:13.218Z,96939.50
2022-10-19T17:07:39.610Z,96941.28
2022-10-19T17:10:06.017Z,96950.19
2022-10-19T17:12:32.636Z,96952.19
2022-10-19T17:15:23.613Z,96950.16
2022-10-19T17:17:45.626Z,96941.41
2022-10-19T17:20:12.022Z,96941.63
2022-10-19T17:22:38.392Z,96938.97
2022-10-19T17:25:04.759Z,96933.28
2022-10-19T17:27:31.128Z,96923.06
2022-10-19T17:29:57.503Z,96928.75
2022-10-19T17:32:23.886Z,96915.84
2022-10-19T17:34:50.258Z,96929.19
2022-10-19T17:37:16.640Z,96925.78
2022-10-19T17:39:43.026Z,96929.81
2022-10-19T17:42:09.396Z,96924.41
2022-10-19T17:44:35.781Z,96926.41
2022-10-19T17:47:02.152Z,96934.69
2022-10-19T17:49:28.521Z,96924.81
2022-10-19T17:51:54.899Z,96929.03
2022-10-19T17:54:21.259Z,96922.59
2022-10-19T17:56:47.651Z,96932.41
2022-10-19T17:59:14.034Z,96938.19
2022-10-19T18:01:40.419Z,96940.50
2022-10-19T18:04:06.787Z,96945.22
2022-10-19T18:06:33.162Z,96950.16
2022-10-19T18:08:59.615Z,96940.50
2022-10-19T18:11:26.042Z,96931.44
2022-10-19T18:13:52.412Z,96937.13
2022-10-19T18:16:18.789Z,96935.22
2022-10-19T18:18:45.157Z,96936.34
2022-10-19T18:21:11.530Z,96937.56
2022-10-19T18:23:37.939Z,96940.13
2022-10-19T18:26:04.322Z,96942.13
2022-10-19T18:28:30.689Z,96941.41
2022-10-19T18:30:57.125Z,96931.09
2022-10-19T18:33:23.506Z,96931.44
2022-10-19T18:35:49.874Z,96936.78
2022-10-19T18:38:16.255Z,96942.56
2022-10-19T18:40:42.656Z,96942.97
2022-10-19T18:43:09.064Z,96937.47
2022-10-19T18:45:35.445Z,96934.16
2022-10-19T18:48:01.819Z,96934.78
2022-10-19T18:50:28.185Z,96922.28
2022-10-19T18:52:54.655Z,96931.34
2022-10-19T18:55:21.020Z,96933.00
2022-10-19T18:57:47.393Z,96927.28
2022-10-19T19:00:13.780Z,96929.19
2022-10-19T19:02:47.004Z,96923.06
2022-10-19T19:05:13.818Z,96929.81
2022-10-19T19:07:40.185Z,96932.84
2022-10-19T19:10:06.564Z,96935.06
2022-10-19T19:12:33.183Z,96934.53
2022-10-19T19:14:59.743Z,96929.81
2022-10-19T19:17:26.122Z,96917.72
2022-10-19T19:19:52.499Z,96914.19
2022-10-19T19:22:18.869Z,96908.44
2022-10-19T19:24:45.232Z,96902.09
2022-10-19T19:27:11.612Z,96904.63
2022-10-19T19:29:37.997Z,96909.34
2022-10-19T19:32:04.361Z,96914.00
2022-10-19T19:34:30.737Z,96911.22
2022-10-19T19:36:57.110Z,96920.59
2022-10-19T19:39:23.483Z,96913.84
2022-10-19T19:41:49.901Z,96922.09
2022-10-19T19:44:16.302Z,96928.31
2022-10-19T19:46:42.684Z,96914.06
2022-10-19T19:49:09.046Z,96908.84
2022-10-19T19:51:35.430Z,96902.38
2022-10-19T19:54:01.851Z,96903.88
2022-10-19T19:56:28.220Z,96906.88
2022-10-19T19:58:54.603Z,96908.69
2022-10-19T20:01:21.024Z,96898.38
2022-10-19T20:03:47.449Z,96901.69
2022-10-19T20:06:13.824Z,96907.16
2022-10-19T20:08:40.238Z,96912.59
2022-10-19T20:11:06.637Z,96908.56
2022-10-19T20:13:33.025Z,96914.25
2022-10-19T20:15:59.641Z,96915.97
2022-10-19T20:18:26.065Z,96917.72
2022-10-19T20:20:52.442Z,96919.06
2022-10-19T20:23:18.828Z,96919.34
2022-10-19T20:25:45.206Z,96914.28
2022-10-19T20:28:11.669Z,96915.09
2022-10-19T20:30:38.030Z,96905.97
2022-10-19T20:33:04.400Z,96904.63
2022-10-19T20:35:30.792Z,96906.13
2022-10-19T20:37:57.152Z,96912.38
2022-10-19T20:40:23.596Z,96913.50
2022-10-19T20:42:50.040Z,96916.75
2022-10-19T20:45:16.421Z,96912.22
2022-10-19T20:47:42.802Z,96912.44
2022-10-19T20:50:09.188Z,96913.56
2022-10-19T20:52:35.807Z,96922.69
2022-10-19T20:55:05.244Z,96912.28
2022-10-19T20:57:31.623Z,96923.28
2022-10-19T20:59:57.997Z,96916.94
2022-10-19T21:02:24.382Z,96907.53
2022-10-19T21:04:50.767Z,96901.75
2022-10-19T21:07:17.137Z,96899.06
2022-10-19T21:09:43.513Z,96897.22
2022-10-19T21:12:09.897Z,96898.72
2022-10-19T21:14:36.260Z,96896.13
2022-10-19T21:17:02.651Z,96900.00
2022-10-19T21:19:29.021Z,96901.75
2022-10-19T21:21:55.399Z,96901.75
2022-10-19T21:24:21.779Z,96899.41
2022-10-19T21:26:48.188Z,96910.75
2022-10-19T21:29:14.640Z,96901.19
2022-10-19T21:31:43.003Z,96906.16
2022-10-19T21:34:11.524Z,96902.94
2022-10-19T21:36:37.883Z,96902.88
2022-10-19T21:39:04.257Z,96900.13
2022-10-19T21:41:30.634Z,96900.91
2022-10-19T21:43:57.008Z,96908.97
2022-10-19T21:46:23.387Z,96900.56
2022-10-19T21:48:49.764Z,96907.47
2022-10-19T21:51:16.124Z,96900.28
2022-10-19T21:53:42.501Z,96906.59
2022-10-19T21:56:08.879Z,96906.06
2022-10-19T21:58:35.269Z,96888.38
2022-10-19T22:01:01.632Z,96888.47
2022-10-19T22:03:27.996Z,96885.72
2022-10-19T22:05:54.382Z,96878.56
2022-10-19T22:08:20.791Z,96879.59
2022-10-19T22:10:47.174Z,96877.28
2022-10-19T22:13:13.548Z,96881.47
2022-10-19T22:15:39.927Z,96890.84
2022-10-19T22:18:06.288Z,96876.31
2022-10-19T22:20:32.653Z,96872.34
2022-10-19T22:22:59.035Z,96865.97
2022-10-19T22:25:25.397Z,96857.59
2022-10-19T22:27:51.792Z,96862.06
2022-10-19T22:30:18.148Z,96858.50
2022-10-19T22:32:44.507Z,96852.44
2022-10-19T22:35:10.885Z,96850.72
2022-10-19T22:37:37.245Z,96842.19
2022-10-19T22:40:03.626Z,96844.59
2022-10-19T22:42:30.004Z,96847.09
2022-10-19T22:44:56.375Z,96849.81
2022-10-19T22:47:22.762Z,96846.59
2022-10-19T22:49:49.134Z,96846.91
2022-10-19T22:52:15.508Z,96841.91
2022-10-19T22:54:41.872Z,96846.75
2022-10-19T22:57:08.244Z,96838.91
2022-10-19T22:59:34.617Z,96832.06
2022-10-19T23:02:01.042Z,96818.03
2022-10-19T23:04:27.451Z,96817.09
2022-10-19T23:06:53.830Z,96826.72
2022-10-19T23:09:20.203Z,96823.56
2022-10-19T23:11:46.567Z,96826.66
2022-10-19T23:14:12.923Z,96825.13
2022-10-19T23:16:39.300Z,96830.13
2022-10-19T23:19:05.676Z,96823.88
2022-10-19T23:21:32.141Z,96823.81
2022-10-19T23:23:58.513Z,96826.78
2022-10-19T23:26:24.879Z,96821.22
2022-10-19T23:28:51.263Z,96826.66
2022-10-19T23:31:17.641Z,96816.13
2022-10-19T23:33:44.008Z,96814.19
2022-10-19T23:36:10.371Z,96812.31
2022-10-19T23:38:36.750Z,96812.69
2022-10-19T23:41:03.123Z,96806.63
2022-10-19T23:43:29.521Z,96809.63
2022-10-19T23:45:55.921Z,96808.81
2022-10-19T23:48:22.306Z,96809.53
2022-10-19T23:50:48.682Z,96807.44
2022-10-19T23:53:15.053Z,96802.41
2022-10-19T23:55:41.416Z,96792.09
2022-10-19T23:58:07.802Z,96788.03
